Time;durP1;ratioP1;P1;durP2;ratioP2;P2;SDS_P1;SDS_P2;PMS_P1;PMS_P2;Temp;Humidity;BMP_temperature;BMP_pressure;BME280_temperature;BME280_humidity;BME280_pressure;Samples;Min_cycle;Max_cycle;Signal;HPM_P1;HPM_P2
2022/11/17 00:02:08;;;;;;;25.97;18.10;;;;;;;;;;5113284;28;20258;-79
2022/11/17 00:04:34;;;;;;;22.60;16.27;;;;;;;;;;5113489;28;20594;-79
2022/11/17 00:07:01;;;;;;;23.83;18.03;;;;;;;;;;5112839;28;20207;-79
2022/11/17 00:09:29;;;;;;;24.63;17.63;;;;;;;;;;5112792;28;20582;-79
2022/11/17 00:14:40;;;;;;;21.30;16.37;;;;;;;;;;5081295;28;20227;-80
2022/11/17 00:17:09;;;;;;;20.87;16.50;;;;;;;;;;5113361;28;20223;-80
2022/11/17 00:22:20;;;;;;;21.80;16.27;;;;;;;;;;5113143;28;20256;-79
2022/11/17 00:24:49;;;;;;;23.73;16.87;;;;;;;;;;5112429;28;20231;-79
2022/11/17 00:27:16;;;;;;;18.10;14.60;;;;;;;;;;5112900;28;20200;-78
2022/11/17 00:29:43;;;;;;;22.00;16.03;;;;;;;;;;5112803;28;20199;-78
2022/11/17 00:34:56;;;;;;;23.70;17.53;;;;;;;;;;5112156;28;20252;-78
2022/11/17 00:37:23;;;;;;;27.77;18.57;;;;;;;;;;5112614;28;20203;-78
2022/11/17 00:39:51;;;;;;;25.10;18.70;;;;;;;;;;5112576;28;20587;-78
2022/11/17 00:42:18;;;;;;;25.00;17.53;;;;;;;;;;5112496;28;20704;-78
2022/11/17 00:44:45;;;;;;;26.40;18.57;;;;;;;;;;5112089;28;20200;-78
2022/11/17 00:47:11;;;;;;;24.90;17.90;;;;;;;;;;5112516;28;20623;-78
2022/11/17 00:49:38;;;;;;;22.30;17.03;;;;;;;;;;5112154;28;20210;-79
2022/11/17 00:52:05;;;;;;;20.03;16.77;;;;;;;;;;5112448;28;20207;-78
2022/11/17 00:54:32;;;;;;;26.33;18.50;;;;;;;;;;5112404;28;20215;-78
2022/11/17 00:57:00;;;;;;;23.63;17.90;;;;;;;;;;5112014;28;20207;-79
2022/11/17 00:59:27;;;;;;;20.97;15.53;;;;;;;;;;5111972;28;20203;-78
2022/11/17 01:01:54;;;;;;;20.23;16.70;;;;;;;;;;5111857;28;20223;-78
2022/11/17 01:04:21;;;;;;;21.60;16.33;;;;;;;;;;5111455;28;20203;-78
2022/11/17 01:06:49;;;;;;;20.83;16.03;;;;;;;;;;5112273;28;20204;-78
2022/11/17 01:09:16;;;;;;;23.63;17.40;;;;;;;;;;5111630;28;20199;-78
2022/11/17 01:11:44;;;;;;;23.17;17.37;;;;;;;;;;5111706;28;20204;-78
2022/11/17 01:14:14;;;;;;;24.33;17.63;;;;;;;;;;5111758;28;20203;-78
2022/11/17 01:16:41;;;;;;;23.00;18.10;;;;;;;;;;5111433;28;20208;-78
2022/11/17 01:19:08;;;;;;;21.63;16.40;;;;;;;;;;5110891;28;20207;-78
2022/11/17 01:21:35;;;;;;;24.13;18.83;;;;;;;;;;5111786;28;20196;-78
2022/11/17 01:24:02;;;;;;;23.50;18.33;;;;;;;;;;5111620;28;20207;-78
2022/11/17 01:26:30;;;;;;;25.13;17.47;;;;;;;;;;5111429;28;20666;-78
2022/11/17 01:28:58;;;;;;;22.57;18.03;;;;;;;;;;5111509;28;20203;-78
2022/11/17 01:31:27;;;;;;;23.43;18.17;;;;;;;;;;5107074;28;20200;-78
2022/11/17 01:33:55;;;;;;;22.40;17.67;;;;;;;;;;5101905;28;20210;-78
2022/11/17 01:36:23;;;;;;;23.13;17.87;;;;;;;;;;5111032;28;20227;-78
2022/11/17 01:38:50;;;;;;;21.57;16.30;;;;;;;;;;5111661;28;20664;-78
2022/11/17 01:41:19;;;;;;;20.90;16.50;;;;;;;;;;5110940;28;20215;-78
2022/11/17 01:43:47;;;;;;;27.33;18.50;;;;;;;;;;5111580;28;20196;-78
2022/11/17 01:46:29;;;;;;;21.07;15.97;;;;;;;;;;5111169;28;20210;-78
2022/11/17 01:49:00;;;;;;;22.50;15.43;;;;;;;;;;5110942;28;20199;-77
2022/11/17 01:51:30;;;;;;;22.17;16.33;;;;;;;;;;5111402;28;20648;-77
2022/11/17 01:53:57;;;;;;;20.10;16.43;;;;;;;;;;5111119;28;20196;-78
2022/11/17 01:56:27;;;;;;;20.67;15.77;;;;;;;;;;5110751;28;20230;-78
2022/11/17 01:58:58;;;;;;;23.60;17.27;;;;;;;;;;5110897;28;20320;-77
2022/11/17 02:01:24;;;;;;;19.90;16.70;;;;;;;;;;5110777;28;20754;-77
2022/11/17 02:03:52;;;;;;;26.23;17.50;;;;;;;;;;5111213;28;20226;-78
2022/11/17 02:06:23;;;;;;;21.13;17.50;;;;;;;;;;5111002;28;20575;-78
2022/11/17 02:08:51;;;;;;;25.10;16.30;;;;;;;;;;5110772;28;20203;-78
2022/11/17 02:11:19;;;;;;;19.80;15.00;;;;;;;;;;5096768;28;20202;-78
2022/11/17 02:13:46;;;;;;;19.50;15.00;;;;;;;;;;5111007;28;20670;-78
2022/11/17 02:16:14;;;;;;;21.50;15.27;;;;;;;;;;5110866;28;20629;-78
2022/11/17 02:18:42;;;;;;;20.73;15.67;;;;;;;;;;5110602;28;20211;-77
2022/11/17 02:21:33;;;;;;;22.77;16.20;;;;;;;;;;5110842;28;20592;-78
2022/11/17 02:24:31;;;;;;;19.87;15.60;;;;;;;;;;5111157;28;20231;-78
2022/11/17 02:27:25;;;;;;;17.93;14.17;;;;;;;;;;5110447;28;20199;-78
2022/11/17 02:29:56;;;;;;;19.27;14.37;;;;;;;;;;5111084;28;20211;-78
2022/11/17 02:32:26;;;;;;;17.10;13.57;;;;;;;;;;5115316;28;20206;-78
2022/11/17 02:34:58;;;;;;;16.63;12.33;;;;;;;;;;5114649;28;20223;-78
2022/11/17 02:37:27;;;;;;;15.67;13.53;;;;;;;;;;5114786;28;20199;-78
2022/11/17 02:40:00;;;;;;;17.53;12.77;;;;;;;;;;5113977;28;20252;-78
2022/11/17 02:45:17;;;;;;;17.63;13.10;;;;;;;;;;5100118;28;20200;-76
2022/11/17 02:47:46;;;;;;;16.40;13.90;;;;;;;;;;5110795;28;20203;-76
2022/11/17 02:50:14;;;;;;;16.47;13.27;;;;;;;;;;5114265;28;20268;-76
2022/11/17 02:52:41;;;;;;;14.27;11.43;;;;;;;;;;5114195;28;20256;-76
2022/11/17 02:55:10;;;;;;;13.03;10.93;;;;;;;;;;5114469;28;20218;-76
2022/11/17 02:57:39;;;;;;;13.10;9.83;;;;;;;;;;5114623;28;20195;-76
2022/11/17 03:00:09;;;;;;;13.37;9.60;;;;;;;;;;5099630;28;20206;-76
2022/11/17 03:02:58;;;;;;;11.43;9.50;;;;;;;;;;5114441;28;20621;-76
2022/11/17 03:05:28;;;;;;;12.43;10.93;;;;;;;;;;5110938;28;20249;-77
2022/11/17 03:08:09;;;;;;;14.53;11.67;;;;;;;;;;5114273;28;20203;-77
2022/11/17 03:10:45;;;;;;;20.40;14.00;;;;;;;;;;5114023;28;20743;-77
2022/11/17 03:13:19;;;;;;;19.63;14.83;;;;;;;;;;5114133;28;20207;-77
2022/11/17 03:15:50;;;;;;;20.37;14.50;;;;;;;;;;5113742;28;20223;-78
2022/11/17 03:18:20;;;;;;;19.03;14.13;;;;;;;;;;5114055;28;20192;-78
2022/11/17 03:20:52;;;;;;;15.60;13.23;;;;;;;;;;5113860;28;20210;-77
2022/11/17 03:23:22;;;;;;;16.47;13.30;;;;;;;;;;5113942;28;20200;-77
2022/11/17 03:25:53;;;;;;;19.20;12.57;;;;;;;;;;5113611;28;20199;-77
2022/11/17 03:28:24;;;;;;;15.10;12.43;;;;;;;;;;5113261;28;20207;-78
2022/11/17 03:30:52;;;;;;;13.07;11.30;;;;;;;;;;5113494;28;20606;-77
2022/11/17 03:33:21;;;;;;;13.37;10.13;;;;;;;;;;5113747;28;20222;-77
2022/11/17 03:35:51;;;;;;;14.53;11.73;;;;;;;;;;5113233;28;20226;-77
2022/11/17 03:38:20;;;;;;;16.77;13.00;;;;;;;;;;5113633;28;20627;-77
2022/11/17 03:40:47;;;;;;;17.63;13.93;;;;;;;;;;5113071;28;20260;-77
2022/11/17 03:43:16;;;;;;;21.53;13.67;;;;;;;;;;5113017;28;20199;-77
2022/11/17 03:45:47;;;;;;;15.77;12.80;;;;;;;;;;5114100;28;20203;-77
2022/11/17 03:48:17;;;;;;;17.50;12.80;;;;;;;;;;5113863;28;20215;-77
2022/11/17 03:50:46;;;;;;;16.77;13.70;;;;;;;;;;5113217;28;20206;-77
2022/11/17 03:53:13;;;;;;;13.97;12.43;;;;;;;;;;5113445;28;20199;-77
2022/11/17 03:55:44;;;;;;;16.27;13.03;;;;;;;;;;5112994;28;20215;-77
2022/11/17 03:58:14;;;;;;;14.93;11.40;;;;;;;;;;5112776;28;20206;-78
2022/11/17 04:00:42;;;;;;;14.00;11.37;;;;;;;;;;5112126;28;20233;-77
2022/11/17 04:03:10;;;;;;;18.60;12.57;;;;;;;;;;5112083;28;20701;-77
2022/11/17 04:05:37;;;;;;;15.57;11.27;;;;;;;;;;5111979;28;20203;-78
2022/11/17 04:08:04;;;;;;;14.97;11.30;;;;;;;;;;5112053;28;20199;-78
2022/11/17 04:15:54;;;;;;;18.40;14.33;;;;;;;;;;5112106;28;20199;-77
2022/11/17 04:16:01;;;;;;;21.53;15.93;;;;;;;;;;5110700;28;20289;-78
2022/11/17 04:18:29;;;;;;;25.00;18.10;;;;;;;;;;5093700;28;20533;-77
2022/11/17 04:20:57;;;;;;;33.03;25.03;;;;;;;;;;5092812;28;20202;-77
2022/11/17 04:23:24;;;;;;;30.07;23.53;;;;;;;;;;5099370;28;20700;-77
2022/11/17 04:28:39;;;;;;;27.37;19.57;;;;;;;;;;5112786;28;20465;-77
2022/11/17 04:31:07;;;;;;;46.23;33.93;;;;;;;;;;5112644;28;20681;-77
2022/11/17 04:33:36;;;;;;;36.97;25.20;;;;;;;;;;5112707;28;20211;-77
2022/11/17 04:36:04;;;;;;;30.70;20.70;;;;;;;;;;5112504;28;20223;-77
2022/11/17 04:38:31;;;;;;;24.70;19.17;;;;;;;;;;5112727;28;20199;-77
2022/11/17 04:43:45;;;;;;;25.50;18.27;;;;;;;;;;5110129;28;20206;-77
2022/11/17 04:46:12;;;;;;;23.90;17.57;;;;;;;;;;5112458;28;20203;-77
2022/11/17 04:48:40;;;;;;;23.67;17.40;;;;;;;;;;5112444;28;20199;-76
2022/11/17 04:51:07;;;;;;;27.70;20.17;;;;;;;;;;5110469;28;20256;-77
2022/11/17 04:53:34;;;;;;;50.30;31.07;;;;;;;;;;5110872;28;20592;-77
2022/11/17 04:56:01;;;;;;;23.73;16.83;;;;;;;;;;5112025;28;20795;-77
2022/11/17 04:58:28;;;;;;;20.63;14.87;;;;;;;;;;5112277;28;20199;-76
2022/11/17 05:00:55;;;;;;;21.17;17.27;;;;;;;;;;5111526;28;20235;-77
2022/11/17 05:03:22;;;;;;;25.17;14.97;;;;;;;;;;5112337;28;20195;-77
2022/11/17 05:05:50;;;;;;;19.30;15.00;;;;;;;;;;5111666;28;20701;-78
2022/11/17 05:08:16;;;;;;;19.50;13.20;;;;;;;;;;5111463;28;20199;-77
2022/11/17 05:13:33;;;;;;;18.67;13.07;;;;;;;;;;5061954;28;20662;-77
2022/11/17 05:18:44;;;;;;;18.57;14.60;;;;;;;;;;5111739;28;20702;-77
2022/11/17 05:21:12;;;;;;;18.10;14.20;;;;;;;;;;5093177;28;20196;-76
2022/11/17 05:23:54;;;;;;;18.63;13.43;;;;;;;;;;5111560;28;20203;-77
2022/11/17 05:26:22;;;;;;;19.33;14.07;;;;;;;;;;5110726;28;20195;-77
2022/11/17 05:28:49;;;;;;;15.73;13.27;;;;;;;;;;5110234;28;20203;-77
2022/11/17 05:31:16;;;;;;;17.83;14.63;;;;;;;;;;5110818;28;20199;-77
2022/11/17 05:33:43;;;;;;;23.73;16.30;;;;;;;;;;5111229;28;20214;-77
2022/11/17 05:36:12;;;;;;;29.70;23.10;;;;;;;;;;5109862;28;20222;-77
2022/11/17 05:38:38;;;;;;;23.50;17.27;;;;;;;;;;5110660;28;20208;-77
2022/11/17 05:41:06;;;;;;;30.43;22.00;;;;;;;;;;5110233;28;20200;-77
2022/11/17 05:43:33;;;;;;;28.67;20.57;;;;;;;;;;5110542;28;20211;-77
2022/11/17 05:46:00;;;;;;;23.03;18.10;;;;;;;;;;5110930;28;20195;-77
2022/11/17 05:48:27;;;;;;;20.30;17.10;;;;;;;;;;5111331;28;20199;-77
2022/11/17 05:50:54;;;;;;;20.90;17.40;;;;;;;;;;5110987;28;20200;-77
2022/11/17 05:53:24;;;;;;;20.23;15.07;;;;;;;;;;5111109;28;20706;-77
2022/11/17 05:55:50;;;;;;;20.90;17.00;;;;;;;;;;5110671;28;20211;-77
2022/11/17 05:58:22;;;;;;;20.70;17.23;;;;;;;;;;5110929;28;20204;-77
2022/11/17 06:00:49;;;;;;;21.83;17.60;;;;;;;;;;5110519;28;20230;-77
2022/11/17 06:03:19;;;;;;;22.07;18.77;;;;;;;;;;5111490;28;20206;-77
2022/11/17 06:05:45;;;;;;;27.90;20.67;;;;;;;;;;5110303;28;20594;-77
2022/11/17 06:08:12;;;;;;;25.37;20.27;;;;;;;;;;5110800;28;20207;-77
2022/11/17 06:10:40;;;;;;;23.93;17.83;;;;;;;;;;5110499;28;20677;-77
2022/11/17 06:13:07;;;;;;;26.63;19.30;;;;;;;;;;5110894;28;20199;-76
2022/11/17 06:15:34;;;;;;;24.23;18.33;;;;;;;;;;5110566;28;20676;-76
2022/11/17 06:18:04;;;;;;;21.30;16.47;;;;;;;;;;5110881;28;20231;-76
2022/11/17 06:20:33;;;;;;;20.67;16.23;;;;;;;;;;5110286;28;20580;-77
2022/11/17 06:23:03;;;;;;;56.53;32.70;;;;;;;;;;5101647;28;20195;-76
2022/11/17 06:25:30;;;;;;;26.37;17.50;;;;;;;;;;5101635;28;20200;-77
2022/11/17 06:27:59;;;;;;;21.63;17.07;;;;;;;;;;5110464;28;20195;-77
2022/11/17 06:30:26;;;;;;;26.10;19.40;;;;;;;;;;5110859;28;20236;-77
2022/11/17 06:32:55;;;;;;;25.97;19.27;;;;;;;;;;5110488;28;20907;-77
2022/11/17 06:35:22;;;;;;;21.00;18.67;;;;;;;;;;5110167;28;20697;-77
2022/11/17 06:37:49;;;;;;;24.20;19.97;;;;;;;;;;5110178;28;20234;-77
2022/11/17 06:40:16;;;;;;;29.00;21.03;;;;;;;;;;5110435;28;20202;-77
2022/11/17 06:45:29;;;;;;;36.97;27.23;;;;;;;;;;5110100;28;20288;-77
2022/11/17 06:47:55;;;;;;;25.80;21.00;;;;;;;;;;5110762;28;20207;-77
2022/11/17 06:50:22;;;;;;;20.70;18.37;;;;;;;;;;5097325;28;20215;-77
2022/11/17 06:52:50;;;;;;;22.50;19.17;;;;;;;;;;5110456;28;20195;-80
2022/11/17 06:55:17;;;;;;;23.43;17.87;;;;;;;;;;5110426;28;20640;-76
2022/11/17 06:57:44;;;;;;;22.93;19.97;;;;;;;;;;5110171;28;20235;-77
2022/11/17 07:00:12;;;;;;;23.57;18.90;;;;;;;;;;5110445;28;20233;-76
2022/11/17 07:02:40;;;;;;;19.07;17.03;;;;;;;;;;5110253;28;20226;-77
2022/11/17 07:05:07;;;;;;;25.03;17.47;;;;;;;;;;5110053;28;20226;-76
2022/11/17 07:07:34;;;;;;;18.63;15.57;;;;;;;;;;5110043;28;20203;-77
2022/11/17 07:10:01;;;;;;;17.43;15.57;;;;;;;;;;5110288;28;20203;-77
2022/11/17 07:12:27;;;;;;;22.80;17.40;;;;;;;;;;5110403;28;20587;-76
2022/11/17 07:14:54;;;;;;;18.13;16.10;;;;;;;;;;5110036;28;20210;-76
2022/11/17 07:17:21;;;;;;;20.07;17.00;;;;;;;;;;5113012;28;20223;-77
2022/11/17 07:19:49;;;;;;;19.07;15.93;;;;;;;;;;5114072;28;20196;-77
2022/11/17 07:22:16;;;;;;;19.77;17.60;;;;;;;;;;5114345;28;20207;-77
2022/11/17 07:24:43;;;;;;;19.73;17.17;;;;;;;;;;5113785;28;20213;-76
2022/11/17 07:27:10;;;;;;;17.77;15.27;;;;;;;;;;5113804;28;20207;-76
2022/11/17 07:29:37;;;;;;;19.87;17.13;;;;;;;;;;5113534;28;20202;-77
2022/11/17 07:32:04;;;;;;;21.00;16.90;;;;;;;;;;5113791;28;20631;-77
2022/11/17 07:34:30;;;;;;;20.97;17.20;;;;;;;;;;5113813;28;20203;-77
2022/11/17 07:36:58;;;;;;;19.50;17.17;;;;;;;;;;5113379;28;20733;-77
2022/11/17 07:39:25;;;;;;;18.83;16.83;;;;;;;;;;5113937;28;20200;-77
2022/11/17 07:41:52;;;;;;;23.33;17.73;;;;;;;;;;5099601;28;20199;-77
2022/11/17 07:44:19;;;;;;;24.33;18.60;;;;;;;;;;5113503;28;20689;-77
2022/11/17 07:46:45;;;;;;;22.13;19.73;;;;;;;;;;5113094;28;20210;-77
2022/11/17 07:49:12;;;;;;;23.00;18.30;;;;;;;;;;5113384;28;20207;-77
2022/11/17 07:51:39;;;;;;;21.77;19.23;;;;;;;;;;5113618;28;20203;-77
2022/11/17 07:54:07;;;;;;;26.17;18.30;;;;;;;;;;5113394;28;20200;-77
2022/11/17 07:56:34;;;;;;;20.30;16.90;;;;;;;;;;5113149;28;20659;-76
2022/11/17 07:59:01;;;;;;;22.10;16.70;;;;;;;;;;5113099;28;20195;-77
2022/11/17 08:01:28;;;;;;;22.90;17.67;;;;;;;;;;5113151;28;20227;-76
2022/11/17 08:03:55;;;;;;;20.80;18.47;;;;;;;;;;5113032;28;20708;-76
2022/11/17 08:06:23;;;;;;;24.30;19.17;;;;;;;;;;5113341;28;20196;-77
2022/11/17 08:08:50;;;;;;;22.90;19.10;;;;;;;;;;5113103;28;20282;-79
2022/11/17 08:11:19;;;;;;;22.30;18.53;;;;;;;;;;5112889;28;20291;-77
2022/11/17 08:13:45;;;;;;;22.77;20.00;;;;;;;;;;5113283;28;20245;-77
2022/11/17 08:16:13;;;;;;;25.90;22.67;;;;;;;;;;5112619;28;20684;-77
2022/11/17 08:18:39;;;;;;;27.10;21.40;;;;;;;;;;5112982;28;20206;-77
2022/11/17 08:21:08;;;;;;;28.90;23.70;;;;;;;;;;5112452;28;20202;-77
2022/11/17 08:23:36;;;;;;;30.70;26.63;;;;;;;;;;5113018;28;20215;-77
2022/11/17 08:26:03;;;;;;;27.37;22.03;;;;;;;;;;5112863;28;20211;-77
2022/11/17 08:28:32;;;;;;;25.57;19.80;;;;;;;;;;5111988;28;20697;-77
2022/11/17 08:31:01;;;;;;;21.47;16.03;;;;;;;;;;5113126;28;20585;-77
2022/11/17 08:33:28;;;;;;;22.87;17.13;;;;;;;;;;5112847;28;20557;-77
2022/11/17 08:35:56;;;;;;;23.27;13.70;;;;;;;;;;5112335;28;20222;-77
2022/11/17 08:38:27;;;;;;;18.70;13.50;;;;;;;;;;5112496;28;20638;-77
2022/11/17 08:40:54;;;;;;;16.17;12.93;;;;;;;;;;5112005;28;20686;-77
2022/11/17 08:43:21;;;;;;;18.70;15.87;;;;;;;;;;5112087;28;20203;-77
2022/11/17 08:45:51;;;;;;;17.53;13.17;;;;;;;;;;5112444;28;20203;-77
2022/11/17 08:48:18;;;;;;;16.13;12.93;;;;;;;;;;5112528;28;20199;-77
2022/11/17 08:50:45;;;;;;;16.00;14.00;;;;;;;;;;5112464;28;20281;-76
2022/11/17 08:53:14;;;;;;;18.07;15.17;;;;;;;;;;5111961;28;20276;-78
2022/11/17 08:55:40;;;;;;;15.63;13.67;;;;;;;;;;5111755;28;20227;-77
2022/11/17 08:58:30;;;;;;;20.27;14.53;;;;;;;;;;5112197;28;20219;-77
2022/11/17 09:00:58;;;;;;;13.20;11.80;;;;;;;;;;5111713;28;20228;-77
2022/11/17 09:03:25;;;;;;;14.87;12.00;;;;;;;;;;5111947;28;20583;-77
2022/11/17 09:05:52;;;;;;;13.17;11.60;;;;;;;;;;5111380;28;20249;-77
2022/11/17 09:08:19;;;;;;;13.27;11.53;;;;;;;;;;5112336;28;20207;-77
2022/11/17 09:10:50;;;;;;;13.83;11.40;;;;;;;;;;5111545;28;20200;-77
2022/11/17 09:13:17;;;;;;;13.57;11.63;;;;;;;;;;5111797;28;20196;-77
2022/11/17 09:15:43;;;;;;;11.93;10.73;;;;;;;;;;5111811;28;20264;-77
2022/11/17 09:18:12;;;;;;;15.70;12.57;;;;;;;;;;5111430;28;20301;-78
2022/11/17 09:20:38;;;;;;;17.33;13.40;;;;;;;;;;5111318;28;20210;-77
2022/11/17 09:23:05;;;;;;;15.87;13.73;;;;;;;;;;5111873;28;20207;-77
2022/11/17 09:25:32;;;;;;;18.67;14.40;;;;;;;;;;5111668;28;20199;-77
2022/11/17 09:28:00;;;;;;;17.33;14.27;;;;;;;;;;5111698;28;20211;-77
2022/11/17 09:30:26;;;;;;;14.80;12.80;;;;;;;;;;5111152;28;20203;-78
2022/11/17 09:32:54;;;;;;;15.07;12.90;;;;;;;;;;5111377;28;20199;-78
2022/11/17 09:35:22;;;;;;;15.00;12.37;;;;;;;;;;5111481;28;20206;-78
2022/11/17 09:37:49;;;;;;;14.07;11.60;;;;;;;;;;5111573;28;20673;-77
2022/11/17 09:40:19;;;;;;;10.87;9.53;;;;;;;;;;5110306;28;20200;-77
2022/11/17 09:42:47;;;;;;;9.27;8.37;;;;;;;;;;5111952;28;20211;-77
2022/11/17 09:45:21;;;;;;;10.97;9.10;;;;;;;;;;5111013;28;20204;-78
2022/11/17 09:47:52;;;;;;;9.57;7.73;;;;;;;;;;5111630;28;20202;-77
2022/11/17 09:50:23;;;;;;;8.30;7.50;;;;;;;;;;5111289;28;20281;-78
2022/11/17 09:52:59;;;;;;;10.57;7.63;;;;;;;;;;5111382;28;20210;-78
2022/11/17 09:55:29;;;;;;;10.97;8.23;;;;;;;;;;5110798;28;20642;-77
2022/11/17 09:58:04;;;;;;;9.23;8.33;;;;;;;;;;5110847;28;20367;-78
2022/11/17 10:00:32;;;;;;;9.47;8.40;;;;;;;;;;5110388;28;20214;-78
2022/11/17 10:02:59;;;;;;;11.93;10.70;;;;;;;;;;5111280;28;20203;-78
2022/11/17 10:05:29;;;;;;;12.67;11.33;;;;;;;;;;5111113;28;20196;-79
2022/11/17 10:07:59;;;;;;;14.83;11.50;;;;;;;;;;5111105;28;20229;-78
2022/11/17 10:10:34;;;;;;;21.23;18.70;;;;;;;;;;5110693;28;20337;-78
2022/11/17 10:13:03;;;;;;;18.37;16.30;;;;;;;;;;5111442;28;20206;-78
2022/11/17 10:15:33;;;;;;;16.23;14.57;;;;;;;;;;5111051;28;20199;-78
2022/11/17 10:18:00;;;;;;;14.27;12.87;;;;;;;;;;5110791;28;20272;-78
2022/11/17 10:20:28;;;;;;;10.53;9.43;;;;;;;;;;5110856;28;20203;-78
2022/11/17 10:22:56;;;;;;;56.93;42.97;;;;;;;;;;5110469;28;20200;-78
2022/11/17 10:25:35;;;;;;;23.47;18.87;;;;;;;;;;5110514;28;20215;-78
2022/11/17 10:28:02;;;;;;;14.97;13.40;;;;;;;;;;5110548;28;20208;-78
2022/11/17 10:30:29;;;;;;;17.93;16.13;;;;;;;;;;5110647;28;20256;-78
2022/11/17 10:32:57;;;;;;;19.83;17.20;;;;;;;;;;5110976;28;20200;-78
2022/11/17 10:35:30;;;;;;;22.90;18.33;;;;;;;;;;5110216;28;20207;-78
2022/11/17 10:37:58;;;;;;;17.47;15.57;;;;;;;;;;5110383;28;20230;-78
2022/11/17 10:40:26;;;;;;;35.23;24.47;;;;;;;;;;5110670;28;20191;-78
2022/11/17 10:43:04;;;;;;;43.30;28.57;;;;;;;;;;5110785;28;20199;-78
2022/11/17 10:45:35;;;;;;;21.73;15.07;;;;;;;;;;5110380;28;20204;-78
2022/11/17 10:48:09;;;;;;;25.07;19.57;;;;;;;;;;5110267;28;20249;-78
2022/11/17 10:50:37;;;;;;;27.80;25.00;;;;;;;;;;5110639;28;20624;-78
2022/11/17 10:53:25;;;;;;;40.57;36.27;;;;;;;;;;5114510;28;20211;-78
2022/11/17 10:55:58;;;;;;;53.73;47.73;;;;;;;;;;5114382;28;20230;-78
2022/11/17 10:58:26;;;;;;;12.63;11.40;;;;;;;;;;5113953;28;20230;-78
2022/11/17 11:00:55;;;;;;;12.63;11.47;;;;;;;;;;5114236;28;20231;-77
2022/11/17 11:03:24;;;;;;;15.77;14.27;;;;;;;;;;5114523;28;20196;-78
2022/11/17 11:06:04;;;;;;;12.87;11.53;;;;;;;;;;5114465;28;20214;-77
2022/11/17 11:08:44;;;;;;;9.50;8.60;;;;;;;;;;5113862;28;20214;-78
2022/11/17 11:11:19;;;;;;;9.07;8.13;;;;;;;;;;5114255;28;20318;-77
2022/11/17 11:13:50;;;;;;;7.30;6.60;;;;;;;;;;5114227;28;20202;-77
2022/11/17 11:16:16;;;;;;;7.83;7.03;;;;;;;;;;5114052;28;20701;-78
2022/11/17 11:18:43;;;;;;;6.90;6.20;;;;;;;;;;5113824;28;20285;-77
2022/11/17 11:21:16;;;;;;;8.70;7.13;;;;;;;;;;5114402;28;20203;-77
2022/11/17 11:23:52;;;;;;;8.70;6.83;;;;;;;;;;5114318;28;20289;-77
2022/11/17 11:26:42;;;;;;;7.70;6.87;;;;;;;;;;5114197;28;20231;-77
2022/11/17 11:29:16;;;;;;;10.20;8.20;;;;;;;;;;5113933;28;20632;-78
2022/11/17 11:31:52;;;;;;;12.77;9.33;;;;;;;;;;5099913;28;20214;-78
2022/11/17 11:34:33;;;;;;;9.40;8.50;;;;;;;;;;5114173;28;20599;-78
2022/11/17 11:37:05;;;;;;;9.60;8.60;;;;;;;;;;5113658;28;20697;-78
2022/11/17 11:39:40;;;;;;;9.17;7.07;;;;;;;;;;5113625;28;20203;-78
2022/11/17 11:42:38;;;;;;;8.63;7.73;;;;;;;;;;5113635;28;20252;-78
2022/11/17 11:45:18;;;;;;;8.77;6.50;;;;;;;;;;5104960;28;20212;-78
2022/11/17 11:47:59;;;;;;;9.27;6.50;;;;;;;;;;5113675;28;20586;-78
2022/11/17 11:50:27;;;;;;;6.97;6.10;;;;;;;;;;5113079;28;20206;-78
2022/11/17 11:52:59;;;;;;;6.80;5.10;;;;;;;;;;5113336;28;20210;-79
2022/11/17 11:55:29;;;;;;;6.07;5.47;;;;;;;;;;5113517;28;20200;-78
2022/11/17 11:58:02;;;;;;;5.47;4.93;;;;;;;;;;5113393;28;20234;-78
2022/11/17 12:00:29;;;;;;;6.13;5.03;;;;;;;;;;5113095;28;20587;-78
2022/11/17 12:03:01;;;;;;;6.73;5.53;;;;;;;;;;5111804;28;20211;-78
2022/11/17 12:05:32;;;;;;;5.87;5.23;;;;;;;;;;5112926;28;20207;-78
2022/11/17 12:08:06;;;;;;;9.53;6.60;;;;;;;;;;5113252;28;20210;-78
2022/11/17 12:10:36;;;;;;;5.97;5.23;;;;;;;;;;5113062;28;20585;-78
2022/11/17 12:13:04;;;;;;;6.63;5.80;;;;;;;;;;5112915;28;20597;-78
2022/11/17 12:15:33;;;;;;;6.10;4.90;;;;;;;;;;5112602;28;20210;-78
2022/11/17 12:18:03;;;;;;;7.03;5.03;;;;;;;;;;5113076;28;20227;-78
2022/11/17 12:20:58;;;;;;;7.33;5.97;;;;;;;;;;5112773;28;20283;-78
2022/11/17 12:23:42;;;;;;;6.83;5.93;;;;;;;;;;5112914;28;20689;-80
2022/11/17 12:26:20;;;;;;;5.97;5.23;;;;;;;;;;5112490;28;20260;-78
2022/11/17 12:28:47;;;;;;;7.83;5.40;;;;;;;;;;5113033;28;20643;-78
2022/11/17 12:31:41;;;;;;;8.83;6.73;;;;;;;;;;5112033;28;20682;-78
2022/11/17 12:34:22;;;;;;;7.77;5.53;;;;;;;;;;5112677;28;20203;-76
2022/11/17 12:37:21;;;;;;;6.50;5.53;;;;;;;;;;5112678;28;20205;-76
2022/11/17 12:40:08;;;;;;;7.37;5.80;;;;;;;;;;5112197;28;20201;-76
2022/11/17 12:42:36;;;;;;;5.43;4.40;;;;;;;;;;5112433;28;20233;-77
2022/11/17 12:45:09;;;;;;;5.07;4.60;;;;;;;;;;5112277;28;20710;-78
2022/11/17 12:47:37;;;;;;;6.03;5.27;;;;;;;;;;5112538;28;20201;-78
2022/11/17 12:50:32;;;;;;;5.23;4.73;;;;;;;;;;5112240;28;20210;-78
2022/11/17 12:53:14;;;;;;;5.10;4.53;;;;;;;;;;5101933;28;20274;-78
2022/11/17 12:56:10;;;;;;;5.27;3.57;;;;;;;;;;5112376;28;20574;-78
2022/11/17 12:58:42;;;;;;;4.00;3.60;;;;;;;;;;5111926;28;20226;-78
2022/11/17 13:01:12;;;;;;;4.43;3.93;;;;;;;;;;5111887;28;20236;-78
2022/11/17 13:03:44;;;;;;;4.43;3.80;;;;;;;;;;5112287;28;20218;-78
2022/11/17 13:06:13;;;;;;;4.90;4.40;;;;;;;;;;5112117;28;20195;-78
2022/11/17 13:08:40;;;;;;;4.67;4.27;;;;;;;;;;5112097;28;20199;-78
2022/11/17 13:11:16;;;;;;;4.53;4.07;;;;;;;;;;5111654;28;20198;-78
2022/11/17 13:13:43;;;;;;;4.43;4.03;;;;;;;;;;5112113;28;20199;-79
2022/11/17 13:16:16;;;;;;;4.00;3.60;;;;;;;;;;5111513;28;20205;-78
2022/11/17 13:18:43;;;;;;;6.43;4.50;;;;;;;;;;5111950;28;20287;-78
2022/11/17 13:21:26;;;;;;;4.67;4.23;;;;;;;;;;5111776;28;20198;-78
2022/11/17 13:23:53;;;;;;;4.57;3.00;;;;;;;;;;5111969;28;20202;-78
2022/11/17 13:26:23;;;;;;;4.23;3.83;;;;;;;;;;5111207;28;20201;-79
2022/11/17 13:29:02;;;;;;;4.77;4.33;;;;;;;;;;5111202;28;20199;-79
2022/11/17 13:31:29;;;;;;;5.50;3.73;;;;;;;;;;5111309;28;20281;-78
2022/11/17 13:34:02;;;;;;;4.37;3.97;;;;;;;;;;5111684;28;20199;-78
2022/11/17 13:36:29;;;;;;;4.17;3.57;;;;;;;;;;5111292;28;20200;-79
2022/11/17 13:38:59;;;;;;;6.30;4.37;;;;;;;;;;5111315;28;20320;-78
2022/11/17 13:41:31;;;;;;;7.50;5.53;;;;;;;;;;5111613;28;20220;-78
2022/11/17 13:43:57;;;;;;;4.37;3.87;;;;;;;;;;5111495;28;20213;-78
2022/11/17 13:46:24;;;;;;;9.53;7.67;;;;;;;;;;5111256;28;20200;-78
2022/11/17 13:48:51;;;;;;;19.47;14.07;;;;;;;;;;5111477;28;20678;-79
2022/11/17 13:51:24;;;;;;;11.57;8.93;;;;;;;;;;5111065;28;20204;-76
2022/11/17 13:53:53;;;;;;;13.77;11.67;;;;;;;;;;5111269;28;20580;-76
2022/11/17 13:56:28;;;;;;;12.57;8.30;;;;;;;;;;5111290;28;20210;-76
2022/11/17 13:58:56;;;;;;;8.53;7.53;;;;;;;;;;5111009;28;20232;-76
2022/11/17 14:01:23;;;;;;;9.00;7.97;;;;;;;;;;5110803;28;20624;-76
2022/11/17 14:03:51;;;;;;;10.13;9.13;;;;;;;;;;5110641;28;20760;-76
2022/11/17 14:06:18;;;;;;;12.13;8.63;;;;;;;;;;5110938;28;20201;-76
2022/11/17 14:09:03;;;;;;;11.77;10.00;;;;;;;;;;5111359;28;20207;-76
2022/11/17 14:11:32;;;;;;;24.47;17.37;;;;;;;;;;5110742;28;20297;-79
2022/11/17 14:14:00;;;;;;;13.97;10.37;;;;;;;;;;5110954;28;20199;-79
2022/11/17 14:16:28;;;;;;;14.40;11.07;;;;;;;;;;5110452;28;20213;-78
2022/11/17 14:18:57;;;;;;;14.43;12.03;;;;;;;;;;5111422;28;20226;-76
2022/11/17 14:21:24;;;;;;;12.97;9.57;;;;;;;;;;5110527;28;20664;-76
2022/11/17 14:24:01;;;;;;;11.23;10.03;;;;;;;;;;5111034;28;20195;-76
2022/11/17 14:26:28;;;;;;;21.97;14.87;;;;;;;;;;5110021;28;20195;-79
2022/11/17 14:29:00;;;;;;;19.23;16.37;;;;;;;;;;5110603;28;20203;-79
2022/11/17 14:31:28;;;;;;;23.17;18.57;;;;;;;;;;5110617;28;20231;-78
2022/11/17 14:33:55;;;;;;;30.30;22.33;;;;;;;;;;5111044;28;20691;-78
2022/11/17 14:36:22;;;;;;;28.17;17.97;;;;;;;;;;5110591;28;20207;-78
2022/11/17 14:38:49;;;;;;;31.83;21.53;;;;;;;;;;5110779;28;20227;-78
2022/11/17 14:41:16;;;;;;;41.80;28.10;;;;;;;;;;5110069;28;20210;-79
2022/11/17 14:43:43;;;;;;;44.17;27.00;;;;;;;;;;5110571;28;20210;-78
2022/11/17 14:46:18;;;;;;;20.20;15.70;;;;;;;;;;5110439;28;20207;-79
2022/11/17 14:48:45;;;;;;;13.50;10.33;;;;;;;;;;5110908;28;20230;-76
2022/11/17 14:51:11;;;;;;;86.70;48.97;;;;;;;;;;5110146;28;20204;-76
2022/11/17 14:53:38;;;;;;;60.10;42.10;;;;;;;;;;5110611;28;20206;-77
2022/11/17 14:56:07;;;;;;;27.50;19.70;;;;;;;;;;5110138;28;20206;-77
2022/11/17 14:58:34;;;;;;;32.93;22.50;;;;;;;;;;5110341;28;20215;-77
2022/11/17 15:01:07;;;;;;;49.90;30.93;;;;;;;;;;5109727;28;20226;-78
2022/11/17 15:03:35;;;;;;;31.47;20.90;;;;;;;;;;5110661;28;20199;-77
2022/11/17 15:06:07;;;;;;;54.00;28.57;;;;;;;;;;5110042;28;20670;-78
2022/11/17 15:08:34;;;;;;;17.57;12.83;;;;;;;;;;5110479;28;20203;-78